Time;durP1;ratioP1;P1;durP2;ratioP2;P2;SDS_P1;SDS_P2;PMS_P1;PMS_P2;Temp;Humidity;BMP_temperature;BMP_pressure;BME280_temperature;BME280_humidity;BME280_pressure;Samples;Min_cycle;Max_cycle;Signal;HPM_P1;HPM_P2
2021/06/06 00:00:27;;;;;;;34.58;22.35;;;;;;;17.26;79.10;99434.59;3612145;39;20051;-65
2021/06/06 00:02:55;;;;;;;38.88;24.90;;;;;;;17.31;78.90;99430.22;3611103;39;20055;-66
2021/06/06 00:05:24;;;;;;;41.78;27.50;;;;;;;17.32;78.47;99437.19;3610765;39;20441;-65
2021/06/06 00:07:52;;;;;;;46.55;30.05;;;;;;;17.33;78.29;99424.66;3610769;39;20391;-67
2021/06/06 00:10:19;;;;;;;49.28;31.83;;;;;;;17.33;78.44;99427.31;3610478;39;20054;-65
2021/06/06 00:12:46;;;;;;;53.70;32.92;;;;;;;17.34;78.21;99431.63;3610580;39;20055;-66
2021/06/06 00:15:16;;;;;;;49.95;33.75;;;;;;;17.36;77.96;99436.75;3610223;39;20080;-65
2021/06/06 00:17:45;;;;;;;52.78;33.83;;;;;;;17.34;77.76;99431.63;3609926;39;20401;-66
2021/06/06 00:20:14;;;;;;;50.80;33.08;;;;;;;17.34;78.05;99440.44;3609214;39;20039;-65
2021/06/06 00:22:41;;;;;;;51.67;34.25;;;;;;;17.39;77.40;99439.81;3609362;39;20084;-64
2021/06/06 00:25:12;;;;;;;53.20;33.92;;;;;;;17.40;77.29;99430.75;3609007;39;20087;-65
2021/06/06 00:27:40;;;;;;;51.05;34.40;;;;;;;17.39;77.62;99437.16;3609474;39;20048;-66
2021/06/06 00:30:10;;;;;;;54.05;34.05;;;;;;;17.45;77.67;99424.75;3609757;39;20055;-65
2021/06/06 00:32:38;;;;;;;49.47;33.75;;;;;;;17.42;77.23;99431.34;3608758;39;20051;-67
2021/06/06 00:35:09;;;;;;;57.35;35.78;;;;;;;17.40;77.21;99441.44;3609001;39;20058;-68
2021/06/06 00:37:37;;;;;;;52.25;33.53;;;;;;;17.36;77.30;99437.59;3609503;39;20048;-67
2021/06/06 00:40:08;;;;;;;52.55;32.42;;;;;;;17.40;77.58;99432.63;3608784;39;20328;-67
2021/06/06 00:42:38;;;;;;;48.33;31.92;;;;;;;17.39;77.78;99428.28;3609713;39;20342;-67
2021/06/06 00:45:10;;;;;;;55.03;34.20;;;;;;;17.32;77.59;99431.03;3608682;39;20048;-66
2021/06/06 00:47:39;;;;;;;52.95;35.03;;;;;;;17.31;77.58;99430.22;3609377;39;20083;-66
2021/06/06 00:50:13;;;;;;;50.55;32.10;;;;;;;17.37;78.32;99435.72;3608651;39;20061;-66
2021/06/06 00:52:42;;;;;;;53.70;33.03;;;;;;;17.42;78.06;99427.84;3609386;39;20136;-65
2021/06/06 00:55:14;;;;;;;54.45;33.30;;;;;;;17.44;78.03;99433.81;3608489;39;20052;-66
2021/06/06 00:57:43;;;;;;;50.92;32.22;;;;;;;17.45;77.58;99441.59;3608104;39;20054;-66
2021/06/06 01:00:21;;;;;;;52.97;31.75;;;;;;;17.49;77.49;99433.94;3609598;39;20129;-67
2021/06/06 01:02:51;;;;;;;50.22;33.63;;;;;;;17.41;77.29;99437.72;3608399;39;20043;-68
2021/06/06 01:05:29;;;;;;;47.70;31.95;;;;;;;17.38;77.50;99437.34;3609753;39;20408;-67
2021/06/06 01:07:57;;;;;;;53.25;33.15;;;;;;;17.35;77.60;99438.63;3608387;39;20044;-67
2021/06/06 01:10:27;;;;;;;49.75;31.00;;;;;;;17.44;77.34;99441.81;3608437;39;20052;-67
2021/06/06 01:13:02;;;;;;;46.15;28.80;;;;;;;17.51;77.65;99439.88;3608823;39;20144;-67
2021/06/06 01:15:38;;;;;;;47.42;30.05;;;;;;;17.51;77.24;99432.69;3608214;39;20064;-67
2021/06/06 01:18:13;;;;;;;48.72;31.13;;;;;;;17.53;77.55;99438.63;3608033;39;20124;-67
2021/06/06 01:20:56;;;;;;;43.85;29.65;;;;;;;17.54;77.30;99434.09;3608584;39;20032;-67
2021/06/06 01:23:41;;;;;;;44.53;29.33;;;;;;;17.49;77.31;99434.75;3608275;39;20047;-67
2021/06/06 01:26:17;;;;;;;46.13;30.80;;;;;;;17.42;77.59;99438.53;3608252;39;20048;-66
2021/06/06 01:28:52;;;;;;;47.65;31.58;;;;;;;17.39;77.65;99428.28;3608001;39;20124;-67
2021/06/06 01:31:22;;;;;;;45.78;29.95;;;;;;;17.43;77.79;99434.81;3608771;39;20075;-67
2021/06/06 01:33:56;;;;;;;47.60;31.75;;;;;;;17.36;77.74;99429.56;3611118;39;20055;-67
2021/06/06 01:36:30;;;;;;;52.10;29.55;;;;;;;17.41;78.03;99431.56;3615200;39;20055;-67
2021/06/06 01:39:04;;;;;;;54.80;35.00;;;;;;;17.38;77.27;99423.97;3611633;39;20039;-67
2021/06/06 01:41:40;;;;;;;55.58;35.97;;;;;;;17.33;77.69;99427.31;3613237;39;20320;-67
2021/06/06 01:44:19;;;;;;;58.22;37.05;;;;;;;17.30;77.21;99425.09;3609502;39;20062;-67
2021/06/06 01:46:51;;;;;;;58.15;36.15;;;;;;;17.27;77.63;99429.03;3608323;39;20073;-67
2021/06/06 01:49:23;;;;;;;58.65;38.45;;;;;;;17.29;77.40;99426.13;3609207;39;20055;-67
2021/06/06 01:51:55;;;;;;;60.63;37.35;;;;;;;17.26;77.49;99419.38;3608128;39;20485;-67
2021/06/06 01:54:31;;;;;;;59.75;38.60;;;;;;;17.28;77.54;99422.66;3608320;39;20070;-65
2021/06/06 01:57:04;;;;;;;58.45;41.17;;;;;;;17.27;77.32;99425.56;3607696;39;20054;-65
2021/06/06 01:59:37;;;;;;;64.00;40.42;;;;;;;17.23;77.64;99422.50;3608198;39;20055;-65
2021/06/06 02:02:06;;;;;;;65.10;40.70;;;;;;;17.13;77.53;99424.03;3609019;39;20051;-66
2021/06/06 02:04:35;;;;;;;66.32;40.90;;;;;;;17.09;77.82;99429.81;3608208;39;20048;-66
2021/06/06 02:07:08;;;;;;;59.78;39.45;;;;;;;17.09;77.84;99432.47;3610640;39;20051;-67
2021/06/06 02:09:45;;;;;;;65.95;42.47;;;;;;;17.06;77.77;99430.25;3610718;39;20044;-67
2021/06/06 02:12:36;;;;;;;;;;;;;;;17.02;77.59;99437.09;3611637;39;20059;-67
2021/06/06 02:15:10;;;;;;;69.68;41.47;;;;;;;17.03;77.59;99437.91;3610183;39;19931;-65
2021/06/06 02:17:50;;;;;;;67.50;41.78;;;;;;;16.97;77.71;99426.22;3609818;39;20048;-66
2021/06/06 02:20:28;;;;;;;63.28;41.20;;;;;;;16.99;77.96;99434.03;3609952;39;20127;-66
2021/06/06 02:22:57;;;;;;;72.13;43.33;;;;;;;16.92;78.30;99430.59;3610108;39;20066;-67
2021/06/06 02:25:26;;;;;;;67.65;41.35;;;;;;;16.93;77.66;99425.03;3609844;39;20080;-67
2021/06/06 02:28:08;;;;;;;71.03;43.95;;;;;;;16.89;78.46;99423.00;3609632;39;20035;-66
2021/06/06 02:30:45;;;;;;;71.75;44.20;;;;;;;16.89;78.44;99428.34;3610136;39;20043;-66
2021/06/06 02:33:23;;;;;;;71.28;45.03;;;;;;;16.86;78.08;99431.44;3611063;39;20317;-66
2021/06/06 02:35:59;;;;;;;71.43;45.35;;;;;;;16.74;78.47;99429.50;3610068;39;20043;-67
2021/06/06 02:38:38;;;;;;;70.25;43.53;;;;;;;16.79;78.23;99424.31;3610440;39;20036;-66
2021/06/06 02:41:13;;;;;;;73.65;45.90;;;;;;;16.76;78.21;99423.94;3610791;39;20051;-67
2021/06/06 02:43:57;;;;;;;74.30;45.20;;;;;;;16.79;78.49;99418.16;3609717;39;20412;-67
2021/06/06 02:46:26;;;;;;;73.05;44.33;;;;;;;16.77;78.69;99417.56;3610916;39;20100;-67
2021/06/06 02:49:00;;;;;;;78.38;46.13;;;;;;;16.77;78.55;99417.56;3612122;39;20050;-67
2021/06/06 02:51:37;;;;;;;78.90;47.55;;;;;;;16.75;78.68;99412.44;3613384;39;20132;-66
2021/06/06 02:54:09;;;;;;;79.47;45.15;;;;;;;16.75;78.66;99412.44;3611918;39;20112;-66
2021/06/06 02:56:45;;;;;;;76.63;44.45;;;;;;;16.73;78.55;99403.81;3610075;39;20062;-66
2021/06/06 02:59:19;;;;;;;76.47;47.63;;;;;;;16.75;78.51;99411.63;3608009;39;20055;-66
2021/06/06 03:01:52;;;;;;;75.03;46.63;;;;;;;16.72;78.82;99412.84;3609560;39;20059;-67
2021/06/06 03:04:30;;;;;;;71.10;42.53;;;;;;;16.62;78.74;99411.72;3610892;39;20079;-67
2021/06/06 03:07:07;;;;;;;72.53;43.17;;;;;;;16.60;79.15;99402.03;3608331;39;20040;-66
2021/06/06 03:09:38;;;;;;;72.93;43.42;;;;;;;16.67;79.18;99410.00;3611841;39;20039;-67
2021/06/06 03:12:10;;;;;;;72.38;44.17;;;;;;;16.65;78.96;99409.41;3612095;39;20043;-67
2021/06/06 03:14:46;;;;;;;66.40;39.20;;;;;;;16.63;78.82;99408.00;3612215;39;20277;-67
2021/06/06 03:17:33;;;;;;;67.82;41.03;;;;;;;16.67;78.63;99406.53;3607876;39;20042;-67
2021/06/06 03:20:08;;;;;;;68.95;42.22;;;;;;;16.67;78.81;99402.00;3607875;39;20028;-67
2021/06/06 03:22:42;;;;;;;69.78;41.47;;;;;;;16.67;78.84;99411.88;3607897;39;20050;-67
2021/06/06 03:25:19;;;;;;;72.00;41.53;;;;;;;16.74;78.52;99412.66;3608703;39;20204;-67
2021/06/06 03:27:48;;;;;;;65.53;39.92;;;;;;;16.74;78.42;99405.47;3607033;39;20353;-66
2021/06/06 03:30:36;;;;;;;66.38;41.80;;;;;;;16.77;78.62;99406.88;3607581;39;20409;-65
2021/06/06 03:33:11;;;;;;;59.00;39.13;;;;;;;16.81;78.10;99406.22;3607626;39;20043;-65
2021/06/06 03:35:39;;;;;;;67.63;42.25;;;;;;;16.82;78.12;99410.53;3607705;39;20056;-65
2021/06/06 03:38:08;;;;;;;61.17;38.03;;;;;;;16.84;78.20;99400.44;3608226;39;20316;-65
2021/06/06 03:40:38;;;;;;;63.65;42.20;;;;;;;16.81;77.84;99414.22;3608507;39;20059;-64
2021/06/06 03:43:17;;;;;;;62.75;40.55;;;;;;;16.75;77.95;99415.13;3607509;39;20073;-65
2021/06/06 03:45:46;;;;;;;66.40;40.03;;;;;;;16.73;78.01;99411.81;3608644;39;20128;-65
2021/06/06 03:48:15;;;;;;;69.97;41.08;;;;;;;16.74;78.36;99413.47;3607078;39;20028;-66
2021/06/06 03:50:42;;;;;;;69.55;42.58;;;;;;;16.69;78.36;99412.44;3608289;39;20051;-67
2021/06/06 03:53:13;;;;;;;67.47;44.72;;;;;;;16.70;78.04;99412.25;3607554;39;20136;-66
2021/06/06 03:55:42;;;;;;;77.13;48.05;;;;;;;16.64;77.81;99406.94;3608313;39;20055;-65
2021/06/06 03:58:11;;;;;;;74.55;50.05;;;;;;;16.53;77.97;99408.47;3607736;39;20040;-65
2021/06/06 04:00:43;;;;;;;79.78;49.83;;;;;;;16.40;77.99;99411.22;3609169;39;20085;-65
2021/06/06 04:03:14;;;;;;;85.18;52.50;;;;;;;16.32;78.28;99414.97;3608893;39;20051;-64
2021/06/06 04:05:45;;;;;;;81.72;49.40;;;;;;;16.19;79.18;99410.53;3609906;39;20044;-65
2021/06/06 04:08:19;;;;;;;77.68;50.42;;;;;;;16.34;79.12;99407.56;3609511;39;20047;-66
2021/06/06 04:10:56;;;;;;;82.10;49.85;;;;;;;16.43;78.94;99410.81;3608874;39;20047;-66
2021/06/06 04:13:26;;;;;;;85.57;51.22;;;;;;;16.43;78.43;99413.47;3610126;39;20132;-68
2021/06/06 04:15:53;;;;;;;92.05;55.40;;;;;;;16.43;78.52;99408.13;3609190;39;20409;-67
2021/06/06 04:18:25;;;;;;;89.53;52.60;;;;;;;16.42;78.98;99410.00;3608385;39;20058;-67
2021/06/06 04:20:58;;;;;;;81.45;49.42;;;;;;;16.46;78.91;99400.53;3608839;39;20055;-68
2021/06/06 04:23:26;;;;;;;74.25;46.17;;;;;;;16.53;78.44;99398.63;3609192;39;20059;-67
2021/06/06 04:25:57;;;;;;;82.80;49.20;;;;;;;16.56;78.80;99408.84;3609763;39;20047;-67
2021/06/06 04:28:26;;;;;;;76.72;47.88;;;;;;;16.57;78.49;99410.50;3609748;39;20047;-68
2021/06/06 04:30:58;;;;;;;78.05;46.78;;;;;;;16.58;78.63;99412.13;3609979;39;20047;-67
2021/06/06 04:33:30;;;;;;;84.22;50.38;;;;;;;16.52;78.24;99417.50;3608811;39;20055;-68
2021/06/06 04:35:57;;;;;;;87.57;49.13;;;;;;;16.55;78.69;99409.06;3609759;39;20490;-67
2021/06/06 04:38:28;;;;;;;80.05;46.33;;;;;;;16.56;79.02;99408.84;3609465;39;20049;-67
2021/06/06 04:41:00;;;;;;;73.85;47.10;;;;;;;16.61;78.68;99408.19;3608673;39;20051;-67
2021/06/06 04:43:28;;;;;;;77.53;46.20;;;;;;;16.59;78.39;99410.28;3609703;39;20316;-67
2021/06/06 04:45:58;;;;;;;73.30;46.13;;;;;;;16.55;78.39;99414.41;3608905;39;20043;-68
2021/06/06 04:48:31;;;;;;;76.55;45.78;;;;;;;16.52;78.23;99423.66;3609452;39;20312;-67
2021/06/06 04:51:02;;;;;;;68.93;45.65;;;;;;;16.53;78.38;99419.97;3608616;39;20055;-67
2021/06/06 04:53:35;;;;;;;78.50;45.25;;;;;;;16.56;78.59;99416.84;3609718;39;20044;-67
2021/06/06 04:56:11;;;;;;;75.00;48.10;;;;;;;16.55;78.10;99419.75;3608792;39;20398;-67
2021/06/06 04:58:39;;;;;;;69.00;44.30;;;;;;;16.55;78.41;99417.91;3609202;39;20075;-67
2021/06/06 05:01:11;;;;;;;71.85;43.92;;;;;;;16.56;78.07;99418.72;3608649;39;20105;-67
2021/06/06 05:03:41;;;;;;;65.60;42.95;;;;;;;16.57;78.20;99418.50;3608681;39;20229;-67
2021/06/06 05:06:10;;;;;;;70.40;43.83;;;;;;;16.57;78.25;99423.00;3608768;39;20056;-65
2021/06/06 05:08:38;;;;;;;66.78;42.28;;;;;;;16.62;78.34;99420.53;3607821;39;20048;-65
2021/06/06 05:11:07;;;;;;;68.55;42.85;;;;;;;16.64;77.65;99429.13;3608389;39;20106;-66
2021/06/06 05:13:37;;;;;;;66.38;40.88;;;;;;;16.65;78.19;99424.59;3608678;39;20083;-67
2021/06/06 05:16:05;;;;;;;70.82;42.47;;;;;;;16.65;78.10;99425.41;3609599;39;20048;-65
2021/06/06 05:18:34;;;;;;;67.40;43.65;;;;;;;16.63;78.10;99422.16;3608139;39;20058;-65
2021/06/06 05:21:08;;;;;;;71.60;43.15;;;;;;;16.56;77.67;99426.72;3608543;39;20070;-65
2021/06/06 05:23:36;;;;;;;72.82;42.88;;;;;;;16.56;78.27;99429.38;3608761;39;20048;-66
2021/06/06 05:26:08;;;;;;;71.28;42.90;;;;;;;16.53;77.70;99430.66;3608615;39;20127;-65
2021/06/06 05:28:39;;;;;;;68.15;42.42;;;;;;;16.53;77.81;99432.47;3608086;39;20039;-65
2021/06/06 05:31:08;;;;;;;64.63;40.75;;;;;;;16.53;78.12;99422.66;3609361;39;20058;-66
2021/06/06 05:33:35;;;;;;;63.60;40.42;;;;;;;16.56;77.56;99424.03;3608733;39;20066;-66
2021/06/06 05:36:05;;;;;;;65.93;41.63;;;;;;;16.51;77.43;99427.38;3608577;39;20053;-66
2021/06/06 05:38:34;;;;;;;62.00;40.28;;;;;;;16.51;77.20;99437.22;3607963;39;20040;-66
2021/06/06 05:41:03;;;;;;;61.25;41.05;;;;;;;16.50;77.58;99430.25;3609262;39;20428;-65
2021/06/06 05:43:30;;;;;;;63.97;40.63;;;;;;;16.59;77.12;99437.78;3608415;39;20047;-65
2021/06/06 05:45:59;;;;;;;59.15;39.08;;;;;;;16.58;76.84;99441.50;3609361;39;20087;-66
2021/06/06 05:48:27;;;;;;;58.00;38.72;;;;;;;16.59;76.41;99439.63;3607846;39;20047;-67
2021/06/06 05:50:56;;;;;;;58.10;37.78;;;;;;;16.61;76.50;99432.22;3609318;39;20383;-67
2021/06/06 05:53:38;;;;;;;52.80;35.47;;;;;;;16.71;76.60;99437.09;3608031;39;20055;-67
2021/06/06 05:56:09;;;;;;;56.67;37.38;;;;;;;16.83;76.24;99443.41;3609083;39;20047;-67
2021/06/06 05:58:37;;;;;;;56.00;36.95;;;;;;;16.96;75.95;99434.47;3608842;39;20417;-67
2021/06/06 06:01:06;;;;;;;47.88;35.10;;;;;;;16.97;75.18;99436.09;3609097;39;20051;-67
2021/06/06 06:03:34;;;;;;;59.08;38.83;;;;;;;17.10;75.38;99435.97;3608028;39;20109;-68
2021/06/06 06:06:02;;;;;;;54.60;36.33;;;;;;;17.12;74.83;99427.75;3608706;39;20389;-67
2021/06/06 06:08:33;;;;;;;53.38;35.95;;;;;;;17.12;74.99;99431.22;3608415;39;20051;-67
2021/06/06 06:11:09;;;;;;;49.60;32.97;;;;;;;17.21;74.67;99432.56;3607993;39;20054;-67
2021/06/06 06:13:37;;;;;;;51.13;34.17;;;;;;;17.20;74.42;99436.28;3609381;39;20051;-67
2021/06/06 06:16:08;;;;;;;49.75;33.78;;;;;;;17.16;74.22;99431.63;3611341;39;20058;-67
2021/06/06 06:18:36;;;;;;;42.42;32.30;;;;;;;17.02;73.79;99433.56;3610595;39;20036;-68
2021/06/06 06:21:09;;;;;;;46.47;34.03;;;;;;;16.96;74.17;99437.94;3609360;39;20377;-67
2021/06/06 06:23:41;;;;;;;50.33;34.10;;;;;;;16.96;74.53;99445.13;3608375;39;20043;-67
2021/06/06 06:26:17;;;;;;;51.53;38.58;;;;;;;17.05;74.59;99441.97;3609034;39;20101;-66
2021/06/06 06:28:56;;;;;;;42.08;30.63;;;;;;;17.09;74.14;99437.00;3607591;39;20032;-68
2021/06/06 06:31:51;;;;;;;43.00;31.40;;;;;;;17.22;74.19;99433.38;3608226;39;20087;-67
2021/06/06 06:34:29;;;;;;;45.25;32.03;;;;;;;17.28;73.54;99435.19;3608098;39;20422;-67
2021/06/06 06:36:58;;;;;;;41.63;31.60;;;;;;;17.41;72.51;99428.91;3607860;39;20044;-67
2021/06/06 06:39:26;;;;;;;44.42;31.15;;;;;;;17.50;72.97;99428.38;3608965;39;20040;-67
2021/06/06 06:41:56;;;;;;;38.08;28.63;;;;;;;17.46;72.43;99429.03;3609064;39;20485;-67
2021/06/06 06:44:24;;;;;;;41.28;29.38;;;;;;;17.41;72.74;99439.59;3608904;39;20079;-66
2021/06/06 06:46:53;;;;;;;40.90;29.20;;;;;;;17.39;72.46;99438.97;3607978;39;20044;-67
2021/06/06 06:49:22;;;;;;;37.17;28.65;;;;;;;17.47;72.42;99439.53;3608165;39;20144;-66
2021/06/06 06:51:50;;;;;;;40.78;29.85;;;;;;;17.54;72.72;99450.13;3609122;39;20424;-64
2021/06/06 06:54:18;;;;;;;44.28;29.35;;;;;;;17.44;71.75;99444.50;3608118;39;20047;-67
2021/06/06 06:56:49;;;;;;;40.20;28.45;;;;;;;17.33;71.88;99446.84;3608683;39;20051;-67
2021/06/06 06:59:21;;;;;;;41.08;30.38;;;;;;;17.27;72.38;99454.94;3607633;39;20389;-67
2021/06/06 07:01:48;;;;;;;47.53;32.92;;;;;;;17.20;72.14;99454.19;3607925;39;20035;-67
2021/06/06 07:04:16;;;;;;;40.72;29.50;;;;;;;17.07;72.71;99458.59;3608904;39;20324;-67
2021/06/06 07:06:43;;;;;;;46.63;31.92;;;;;;;17.08;72.60;99462.91;3607878;39;20063;-70
2021/06/06 07:09:11;;;;;;;46.90;32.40;;;;;;;17.04;72.43;99461.72;3609053;39;20127;-64
2021/06/06 07:11:40;;;;;;;49.83;34.90;;;;;;;16.96;72.65;99466.50;3608684;39;20059;-67
2021/06/06 07:14:08;;;;;;;48.95;34.42;;;;;;;16.92;73.01;99466.13;3608860;39;20070;-67
2021/06/06 07:16:38;;;;;;;49.83;35.58;;;;;;;16.88;73.06;99467.59;3608772;39;20262;-67
2021/06/06 07:19:07;;;;;;;47.20;32.50;;;;;;;16.78;73.51;99465.41;3608319;39;20043;-67
2021/06/06 07:21:35;;;;;;;42.15;28.48;;;;;;;16.74;73.62;99474.06;3608886;39;20054;-67
2021/06/06 07:24:04;;;;;;;41.25;29.80;;;;;;;16.89;73.20;99471.06;3608746;39;20392;-66
2021/06/06 07:26:37;;;;;;;43.03;31.30;;;;;;;17.08;72.71;99470.09;3609161;39;20047;-66
2021/06/06 07:29:09;;;;;;;37.95;25.77;;;;;;;17.06;72.02;99472.16;3609641;39;20355;-66
2021/06/06 07:31:41;;;;;;;30.15;22.20;;;;;;;17.12;71.37;99471.31;3608953;39;20100;-66
2021/06/06 07:34:13;;;;;;;31.33;24.83;;;;;;;17.14;71.61;99469.22;3610649;39;20048;-67
2021/06/06 07:36:43;;;;;;;32.53;22.73;;;;;;;17.25;71.84;99463.16;3610276;39;20043;-67
2021/06/06 07:39:11;;;;;;;28.98;22.52;;;;;;;17.39;71.34;99461.19;3609437;39;20054;-66
2021/06/06 07:41:39;;;;;;;27.67;20.65;;;;;;;17.52;70.95;99468.25;3610860;39;20091;-65
2021/06/06 07:44:13;;;;;;;27.55;20.33;;;;;;;17.57;70.54;99468.41;3611025;39;20050;-66
2021/06/06 07:46:42;;;;;;;32.35;24.60;;;;;;;17.51;70.52;99469.28;3611193;39;20458;-65
2021/06/06 07:49:10;;;;;;;25.42;19.50;;;;;;;17.65;70.26;99465.44;3610326;39;20120;-67
2021/06/06 07:51:38;;;;;;;25.20;19.95;;;;;;;17.75;70.30;99467.63;3610086;39;20019;-67
2021/06/06 07:54:06;;;;;;;27.63;20.15;;;;;;;17.78;69.39;99462.66;3610326;39;20088;-67
2021/06/06 07:56:41;;;;;;;24.17;19.00;;;;;;;17.81;69.31;99464.06;3610285;39;20047;-65
2021/06/06 07:59:11;;;;;;;24.23;18.35;;;;;;;17.77;69.31;99465.56;3611126;39;20400;-68
2021/06/06 08:02:07;;;;;;;22.08;18.65;;;;;;;17.85;69.26;99462.59;3611043;39;20281;-67
2021/06/06 08:04:37;;;;;;;24.13;19.70;;;;;;;17.92;69.08;99457.13;3610175;39;20385;-65
2021/06/06 08:07:05;;;;;;;22.27;17.15;;;;;;;17.90;68.49;99465.38;3610466;39;20422;-66
2021/06/06 08:09:32;;;;;;;24.27;18.73;;;;;;;17.94;68.34;99457.75;3610816;39;20047;-66
2021/06/06 08:12:00;;;;;;;24.55;18.13;;;;;;;18.01;68.41;99453.94;3610378;39;20040;-67
2021/06/06 08:14:35;;;;;;;21.75;16.88;;;;;;;18.07;68.59;99466.41;3610923;39;20052;-66
2021/06/06 08:17:03;;;;;;;21.33;16.38;;;;;;;18.06;68.03;99463.97;3611411;39;20361;-67
2021/06/06 08:19:31;;;;;;;22.52;17.27;;;;;;;17.95;67.94;99467.38;3611236;39;20043;-67
2021/06/06 08:21:59;;;;;;;21.23;16.38;;;;;;;17.92;68.22;99454.47;3611153;39;20051;-66
2021/06/06 08:24:26;;;;;;;20.67;16.38;;;;;;;18.03;68.55;99461.72;3611556;39;20054;-65
2021/06/06 08:26:53;;;;;;;20.40;17.27;;;;;;;18.16;68.23;99464.22;3609282;39;20147;-66
2021/06/06 08:29:21;;;;;;;22.00;18.63;;;;;;;18.23;67.85;99461.47;3610454;39;20043;-65
2021/06/06 08:31:49;;;;;;;20.42;16.88;;;;;;;18.12;68.37;99459.56;3610076;39;20055;-66
2021/06/06 08:34:19;;;;;;;21.70;17.33;;;;;;;18.15;67.96;99451.91;3610169;39;20043;-66
2021/06/06 08:36:49;;;;;;;24.33;18.63;;;;;;;18.26;68.08;99461.03;3609865;39;20401;-65
2021/06/06 08:39:21;;;;;;;20.92;16.02;;;;;;;18.30;67.82;99451.50;3609816;39;20051;-65
2021/06/06 08:41:56;;;;;;;19.33;15.00;;;;;;;18.28;67.10;99453.59;3610046;39;20047;-64
2021/06/06 08:44:27;;;;;;;18.80;16.42;;;;;;;18.45;67.18;99459.13;3609636;39;20047;-64
2021/06/06 08:47:00;;;;;;;21.92;16.35;;;;;;;18.62;66.99;99456.63;3608884;39;20159;-64
2021/06/06 08:49:33;;;;;;;17.95;14.90;;;;;;;18.66;66.75;99457.81;3609997;39;20059;-67
2021/06/06 08:52:15;;;;;;;19.38;16.13;;;;;;;18.73;66.08;99448.63;3609918;39;20066;-66
2021/06/06 08:54:54;;;;;;;18.60;16.23;;;;;;;18.90;65.38;99453.31;3609856;39;20083;-65
2021/06/06 08:57:28;;;;;;;19.83;16.17;;;;;;;18.84;65.28;99446.22;3609828;39;20058;-65
2021/06/06 08:59:58;;;;;;;17.40;14.00;;;;;;;18.80;65.53;99451.22;3609982;39;20039;-65
2021/06/06 09:02:29;;;;;;;18.45;14.43;;;;;;;18.91;65.67;99445.06;3610134;39;20058;-65
2021/06/06 09:04:57;;;;;;;20.20;15.70;;;;;;;18.99;65.53;99444.72;3610540;39;20132;-65
2021/06/06 09:07:38;;;;;;;20.35;16.40;;;;;;;19.10;65.36;99447.63;3610532;39;20055;-65
2021/06/06 09:10:09;;;;;;;19.50;15.70;;;;;;;19.22;65.18;99449.25;3610604;39;20417;-67
2021/06/06 09:12:37;;;;;;;20.38;15.23;;;;;;;19.27;64.75;99444.03;3611349;39;20074;-65
2021/06/06 09:15:07;;;;;;;17.75;15.80;;;;;;;19.35;64.57;99450.06;3610246;39;20054;-65
2021/06/06 09:17:38;;;;;;;17.58;14.00;;;;;;;19.39;64.17;99449.41;3610933;39;20084;-65
2021/06/06 09:20:23;;;;;;;18.13;14.38;;;;;;;19.38;64.15;99446.94;3613449;39;20046;-65
2021/06/06 09:22:52;;;;;;;16.20;13.82;;;;;;;19.54;63.34;99443.53;3613682;39;20038;-63
2021/06/06 09:25:27;;;;;;;19.35;15.10;;;;;;;19.36;62.90;99444.50;3614260;39;20055;-65
2021/06/06 09:28:03;;;;;;;18.90;15.60;;;;;;;19.37;62.98;99446.13;3613761;39;20381;-68
2021/06/06 09:30:32;;;;;;;17.50;13.32;;;;;;;19.41;62.99;99452.66;3612640;39;20071;-67
2021/06/06 09:33:08;;;;;;;18.17;14.23;;;;;;;19.52;62.94;99459.06;3612931;39;20047;-66
2021/06/06 09:35:50;;;;;;;16.45;14.25;;;;;;;19.53;63.03;99460.69;3613273;39;20084;-67
2021/06/06 09:38:24;;;;;;;16.10;12.93;;;;;;;19.62;63.07;99461.16;3612032;39;20046;-67
2021/06/06 09:40:53;;;;;;;16.15;14.05;;;;;;;19.69;62.96;99453.81;3613055;39;20301;-67
2021/06/06 09:43:24;;;;;;;16.40;13.80;;;;;;;19.73;62.49;99454.97;3613682;39;20104;-66
2021/06/06 09:46:03;;;;;;;17.73;14.75;;;;;;;19.71;62.50;99455.19;3612226;39;20020;-66
2021/06/06 09:48:33;;;;;;;17.85;13.68;;;;;;;19.87;62.45;99455.50;3611181;39;20051;-67
2021/06/06 09:51:12;;;;;;;;;;;;;;;19.93;62.31;99457.25;3611988;39;20052;-67
2021/06/06 09:53:43;;;;;;;17.30;14.02;;;;;;;19.73;62.20;99460.34;3611462;39;19944;-67
2021/06/06 09:56:16;;;;;;;15.85;13.55;;;;;;;19.68;62.74;99457.56;3610413;39;20051;-67
2021/06/06 09:58:44;;;;;;;18.55;14.27;;;;;;;19.54;63.03;99460.44;3610253;39;20079;-67
2021/06/06 10:01:25;;;;;;;20.13;15.57;;;;;;;19.49;62.60;99454.16;3610581;39;20075;-66
2021/06/06 10:03:56;;;;;;;19.95;14.73;;;;;;;19.45;63.00;99458.34;3610013;39;20043;-65
2021/06/06 10:06:36;;;;;;;22.27;16.77;;;;;;;19.41;63.35;99468.72;3612323;39;20105;-66
2021/06/06 10:09:11;;;;;;;20.40;15.63;;;;;;;19.22;63.56;99459.16;3611560;39;20063;-65
2021/06/06 10:11:51;;;;;;;17.98;13.90;;;;;;;19.16;63.94;99468.97;3612464;39;20042;-65
2021/06/06 10:14:21;;;;;;;18.38;15.00;;;;;;;19.06;63.96;99458.00;3610440;39;20367;-63
2021/06/06 10:16:51;;;;;;;15.57;13.73;;;;;;;18.99;64.52;99455.44;3609933;39;20051;-63
2021/06/06 10:19:24;;;;;;;20.83;16.42;;;;;;;19.14;64.43;99457.66;3609213;39;20053;-64
2021/06/06 10:21:53;;;;;;;16.83;14.13;;;;;;;19.17;64.00;99453.69;3609328;39;20054;-65
2021/06/06 10:24:30;;;;;;;18.75;15.77;;;;;;;19.32;63.86;99450.56;3608275;39;20051;-65
2021/06/06 10:27:00;;;;;;;18.13;14.82;;;;;;;19.20;63.10;99451.38;3609077;39;20431;-65
2021/06/06 10:29:31;;;;;;;21.17;16.92;;;;;;;19.29;63.60;99457.19;3609277;39;20079;-65
2021/06/06 10:32:06;;;;;;;16.27;14.38;;;;;;;19.41;63.33;99457.19;3608981;39;20047;-66
2021/06/06 10:34:40;;;;;;;19.52;16.83;;;;;;;19.37;63.13;99461.41;3609920;39;20088;-64
2021/06/06 10:37:09;;;;;;;19.17;14.70;;;;;;;19.34;62.73;99462.66;3608742;39;20075;-66
2021/06/06 10:39:40;;;;;;;18.67;14.63;;;;;;;19.10;63.42;99464.53;3608170;39;20059;-65
2021/06/06 10:42:12;;;;;;;19.15;14.63;;;;;;;19.17;63.20;99464.41;3609149;39;20047;-65
2021/06/06 10:44:49;;;;;;;18.83;14.38;;;;;;;19.12;63.00;99461.63;3608366;39;20027;-65
2021/06/06 10:47:23;;;;;;;17.15;14.00;;;;;;;19.33;62.42;99468.28;3608656;39;20028;-64
2021/06/06 10:49:54;;;;;;;16.52;13.32;;;;;;;19.46;62.95;99458.13;3609127;39;20048;-65
2021/06/06 10:52:26;;;;;;;15.75;13.68;;;;;;;19.48;62.10;99453.34;3608955;39;20083;-66
2021/06/06 10:54:57;;;;;;;17.30;14.73;;;;;;;19.65;62.16;99458.03;3608962;39;20047;-65
2021/06/06 10:57:37;;;;;;;17.80;14.60;;;;;;;19.70;61.31;99456.25;3608507;39;20051;-64
2021/06/06 11:00:24;;;;;;;16.70;13.48;;;;;;;19.71;61.84;99443.66;3609014;39;20051;-64
2021/06/06 11:02:56;;;;;;;16.38;13.38;;;;;;;19.90;61.16;99444.31;3607771;39;20047;-66
2021/06/06 11:05:39;;;;;;;18.50;13.10;;;;;;;20.03;61.28;99446.72;3609438;39;20043;-66
2021/06/06 11:08:17;;;;;;;16.60;13.77;;;;;;;19.99;60.79;99443.69;3609706;39;20052;-65
2021/06/06 11:10:53;;;;;;;15.45;13.73;;;;;;;20.00;60.65;99442.66;3610370;39;20127;-65
2021/06/06 11:13:33;;;;;;;14.38;12.88;;;;;;;20.15;60.21;99444.81;3610534;39;20385;-67
2021/06/06 11:16:03;;;;;;;16.67;13.75;;;;;;;19.97;60.37;99440.44;3610179;39;20402;-66
2021/06/06 11:18:44;;;;;;;16.80;12.52;;;;;;;19.85;60.50;99434.31;3612782;39;20152;-66
2021/06/06 11:21:11;;;;;;;16.15;14.45;;;;;;;20.06;60.66;99429.34;3618047;39;20058;-66
2021/06/06 11:23:42;;;;;;;13.52;11.35;;;;;;;20.07;60.33;99431.78;3617193;39;20476;-66
2021/06/06 11:26:22;;;;;;;12.65;10.57;;;;;;;20.30;60.69;99425.50;3617507;39;20067;-65
2021/06/06 11:28:52;;;;;;;17.13;13.05;;;;;;;20.22;60.54;99417.84;3612166;39;20043;-65
2021/06/06 11:31:25;;;;;;;14.02;12.63;;;;;;;20.36;60.04;99419.16;3610444;39;20132;-66
2021/06/06 11:33:57;;;;;;;15.52;12.38;;;;;;;20.36;60.39;99412.97;3610171;39;20050;-66
2021/06/06 11:36:32;;;;;;;12.80;11.50;;;;;;;20.37;60.54;99410.06;3610143;39;20046;-65
2021/06/06 11:39:13;;;;;;;15.50;12.30;;;;;;;20.29;59.86;99411.25;3609673;39;20039;-64